Terminal Aerodrome Forecast
Issued by NWS

Home | Current Version | Previous Version | Text Only | Print | Product List | Glossary On
Versions: 1 2 3 4 5 6 7 8 9 10 11 12 13 14 15 16 17 18 19 20
000
FTUS43 KMQT 251857 AAA
TAFIWD
TAF AMD
KIWD 251857Z 2519/2618 30012KT 5SM -SHSN BKN015
     FM252100 29011G21KT P6SM BKN120
     FM252200 28010KT P6SM SCT110
     FM260300 23007KT P6SM -SHSN BKN050
     FM260600 22009KT 5SM -SHSN BKN035
     FM260900 22008KT 2SM -SHSN BKN015
     FM261100 22007KT 6SM -SHSN OVC020
     FM261500 21008KT 2SM -SHSN OVC020=

USA.gov is the U.S. government's official web portal to all federal, state and local government web resources and services.